sensor_id;sensor_type;location;lat;lon;timestamp;P1;durP1;ratioP1;P2;durP2;ratioP2
51907;SDS011;39320;53.214;6.556;2023-12-22T00:00:46;3.47;;;2.75;;
51907;SDS011;39320;53.214;6.556;2023-12-22T00:03:13;4.22;;;3.00;;
51907;SDS011;39320;53.214;6.556;2023-12-22T00:05:40;4.63;;;2.55;;
51907;SDS011;39320;53.214;6.556;2023-12-22T00:08:06;3.50;;;2.72;;
51907;SDS011;39320;53.214;6.556;2023-12-22T00:10:31;4.82;;;2.13;;
51907;SDS011;39320;53.214;6.556;2023-12-22T00:12:57;2.38;;;2.00;;
51907;SDS011;39320;53.214;6.556;2023-12-22T00:15:23;3.90;;;2.15;;
51907;SDS011;39320;53.214;6.556;2023-12-22T00:17:49;2.80;;;2.17;;
51907;SDS011;39320;53.214;6.556;2023-12-22T00:20:14;2.63;;;2.00;;
51907;SDS011;39320;53.214;6.556;2023-12-22T00:22:40;3.45;;;1.75;;
51907;SDS011;39320;53.214;6.556;2023-12-22T00:25:06;2.13;;;1.77;;
51907;SDS011;39320;53.214;6.556;2023-12-22T00:27:35;4.40;;;2.25;;
51907;SDS011;39320;53.214;6.556;2023-12-22T00:30:00;3.90;;;2.33;;
51907;SDS011;39320;53.214;6.556;2023-12-22T00:32:26;2.97;;;2.28;;
51907;SDS011;39320;53.214;6.556;2023-12-22T00:34:52;3.80;;;2.17;;
51907;SDS011;39320;53.214;6.556;2023-12-22T00:37:17;4.75;;;2.20;;
51907;SDS011;39320;53.214;6.556;2023-12-22T00:39:43;3.38;;;2.35;;
51907;SDS011;39320;53.214;6.556;2023-12-22T00:42:09;1.58;;;1.48;;
51907;SDS011;39320;53.214;6.556;2023-12-22T00:44:35;1.30;;;1.15;;
51907;SDS011;39320;53.214;6.556;2023-12-22T00:47:00;1.48;;;1.27;;
51907;SDS011;39320;53.214;6.556;2023-12-22T00:49:26;2.20;;;1.20;;
51907;SDS011;39320;53.214;6.556;2023-12-22T00:51:52;2.63;;;1.70;;
51907;SDS011;39320;53.214;6.556;2023-12-22T00:54:17;2.30;;;1.50;;
51907;SDS011;39320;53.214;6.556;2023-12-22T00:56:43;3.55;;;1.83;;
51907;SDS011;39320;53.214;6.556;2023-12-22T00:59:09;1.95;;;1.63;;
51907;SDS011;39320;53.214;6.556;2023-12-22T01:01:35;3.35;;;1.48;;
51907;SDS011;39320;53.214;6.556;2023-12-22T01:04:00;1.65;;;1.55;;
51907;SDS011;39320;53.214;6.556;2023-12-22T01:06:26;2.30;;;1.42;;
51907;SDS011;39320;53.214;6.556;2023-12-22T01:08:52;2.60;;;1.48;;
51907;SDS011;39320;53.214;6.556;2023-12-22T01:11:18;2.75;;;1.88;;
51907;SDS011;39320;53.214;6.556;2023-12-22T01:13:44;3.67;;;2.05;;
51907;SDS011;39320;53.214;6.556;2023-12-22T01:16:09;3.67;;;2.30;;
51907;SDS011;39320;53.214;6.556;2023-12-22T01:18:35;2.60;;;2.38;;
51907;SDS011;39320;53.214;6.556;2023-12-22T01:21:01;5.85;;;2.55;;
51907;SDS011;39320;53.214;6.556;2023-12-22T01:23:27;3.10;;;2.25;;
51907;SDS011;39320;53.214;6.556;2023-12-22T01:25:53;4.05;;;2.70;;
51907;SDS011;39320;53.214;6.556;2023-12-22T01:28:18;5.40;;;2.97;;
51907;SDS011;39320;53.214;6.556;2023-12-22T01:30:44;3.92;;;2.42;;
51907;SDS011;39320;53.214;6.556;2023-12-22T01:33:10;4.20;;;2.50;;
51907;SDS011;39320;53.214;6.556;2023-12-22T01:35:35;3.55;;;2.95;;
51907;SDS011;39320;53.214;6.556;2023-12-22T01:38:01;3.00;;;2.42;;
51907;SDS011;39320;53.214;6.556;2023-12-22T01:40:27;3.75;;;2.85;;
51907;SDS011;39320;53.214;6.556;2023-12-22T01:42:53;4.72;;;2.75;;
51907;SDS011;39320;53.214;6.556;2023-12-22T01:45:18;4.55;;;2.38;;
51907;SDS011;39320;53.214;6.556;2023-12-22T01:47:45;3.65;;;2.08;;
51907;SDS011;39320;53.214;6.556;2023-12-22T01:50:11;3.80;;;2.10;;
51907;SDS011;39320;53.214;6.556;2023-12-22T01:52:39;5.05;;;2.60;;
51907;SDS011;39320;53.214;6.556;2023-12-22T01:55:08;3.58;;;2.40;;
51907;SDS011;39320;53.214;6.556;2023-12-22T01:57:35;5.25;;;2.53;;
51907;SDS011;39320;53.214;6.556;2023-12-22T02:00:01;3.70;;;2.50;;
51907;SDS011;39320;53.214;6.556;2023-12-22T02:02:29;4.07;;;2.03;;
51907;SDS011;39320;53.214;6.556;2023-12-22T02:04:56;3.58;;;2.83;;
51907;SDS011;39320;53.214;6.556;2023-12-22T02:07:24;4.90;;;2.83;;
51907;SDS011;39320;53.214;6.556;2023-12-22T02:09:49;4.75;;;2.60;;
51907;SDS011;39320;53.214;6.556;2023-12-22T02:12:15;4.07;;;2.58;;
51907;SDS011;39320;53.214;6.556;2023-12-22T02:14:41;5.25;;;2.83;;
51907;SDS011;39320;53.214;6.556;2023-12-22T02:17:14;3.83;;;2.38;;
51907;SDS011;39320;53.214;6.556;2023-12-22T02:19:47;3.85;;;3.17;;
51907;SDS011;39320;53.214;6.556;2023-12-22T02:22:13;3.17;;;2.63;;
51907;SDS011;39320;53.214;6.556;2023-12-22T02:24:39;3.15;;;2.25;;
51907;SDS011;39320;53.214;6.556;2023-12-22T02:27:10;2.70;;;2.20;;
51907;SDS011;39320;53.214;6.556;2023-12-22T02:29:41;3.47;;;1.88;;
51907;SDS011;39320;53.214;6.556;2023-12-22T02:32:12;2.05;;;1.70;;
51907;SDS011;39320;53.214;6.556;2023-12-22T02:34:44;2.22;;;1.85;;
51907;SDS011;39320;53.214;6.556;2023-12-22T02:37:14;4.07;;;2.33;;
51907;SDS011;39320;53.214;6.556;2023-12-22T02:39:41;3.15;;;1.88;;
51907;SDS011;39320;53.214;6.556;2023-12-22T02:42:08;3.72;;;2.45;;
51907;SDS011;39320;53.214;6.556;2023-12-22T02:44:34;3.75;;;2.10;;
51907;SDS011;39320;53.214;6.556;2023-12-22T02:47:00;3.17;;;2.08;;
51907;SDS011;39320;53.214;6.556;2023-12-22T02:49:29;3.92;;;2.67;;
51907;SDS011;39320;53.214;6.556;2023-12-22T02:51:55;3.70;;;2.60;;
51907;SDS011;39320;53.214;6.556;2023-12-22T02:54:20;5.32;;;2.95;;
51907;SDS011;39320;53.214;6.556;2023-12-22T02:56:46;4.20;;;2.25;;
51907;SDS011;39320;53.214;6.556;2023-12-22T02:59:12;4.25;;;2.70;;
51907;SDS011;39320;53.214;6.556;2023-12-22T03:01:38;4.25;;;2.40;;
51907;SDS011;39320;53.214;6.556;2023-12-22T03:04:04;5.30;;;2.67;;
51907;SDS011;39320;53.214;6.556;2023-12-22T03:06:29;3.97;;;2.78;;
51907;SDS011;39320;53.214;6.556;2023-12-22T03:08:55;2.38;;;1.50;;
51907;SDS011;39320;53.214;6.556;2023-12-22T03:11:21;1.05;;;1.02;;
51907;SDS011;39320;53.214;6.556;2023-12-22T03:13:46;1.38;;;1.20;;
51907;SDS011;39320;53.214;6.556;2023-12-22T03:16:14;1.48;;;1.38;;
51907;SDS011;39320;53.214;6.556;2023-12-22T03:18:40;1.95;;;1.50;;
51907;SDS011;39320;53.214;6.556;2023-12-22T03:21:06;1.70;;;1.20;;
51907;SDS011;39320;53.214;6.556;2023-12-22T03:23:32;2.42;;;1.63;;
51907;SDS011;39320;53.214;6.556;2023-12-22T03:25:57;3.63;;;1.83;;
51907;SDS011;39320;53.214;6.556;2023-12-22T03:28:27;3.58;;;2.05;;
51907;SDS011;39320;53.214;6.556;2023-12-22T03:30:53;2.80;;;1.73;;
51907;SDS011;39320;53.214;6.556;2023-12-22T03:33:19;2.33;;;2.13;;
51907;SDS011;39320;53.214;6.556;2023-12-22T03:35:44;3.92;;;2.53;;
51907;SDS011;39320;53.214;6.556;2023-12-22T03:38:10;3.50;;;2.22;;
51907;SDS011;39320;53.214;6.556;2023-12-22T03:40:36;3.42;;;2.53;;
51907;SDS011;39320;53.214;6.556;2023-12-22T03:43:01;2.83;;;2.28;;
51907;SDS011;39320;53.214;6.556;2023-12-22T03:45:27;4.47;;;2.15;;
51907;SDS011;39320;53.214;6.556;2023-12-22T03:47:53;1.65;;;1.50;;
51907;SDS011;39320;53.214;6.556;2023-12-22T03:50:18;1.58;;;1.48;;
51907;SDS011;39320;53.214;6.556;2023-12-22T03:52:44;2.67;;;1.48;;
51907;SDS011;39320;53.214;6.556;2023-12-22T03:55:10;2.15;;;1.70;;
51907;SDS011;39320;53.214;6.556;2023-12-22T03:57:35;2.72;;;1.60;;
51907;SDS011;39320;53.214;6.556;2023-12-22T04:00:01;2.30;;;1.67;;
51907;SDS011;39320;53.214;6.556;2023-12-22T04:02:27;2.20;;;1.50;;
51907;SDS011;39320;53.214;6.556;2023-12-22T04:04:52;2.42;;;1.98;;
51907;SDS011;39320;53.214;6.556;2023-12-22T04:07:18;3.08;;;2.20;;
51907;SDS011;39320;53.214;6.556;2023-12-22T04:09:44;3.58;;;2.20;;
51907;SDS011;39320;53.214;6.556;2023-12-22T04:12:09;3.03;;;2.25;;
51907;SDS011;39320;53.214;6.556;2023-12-22T04:14:35;3.60;;;2.72;;
51907;SDS011;39320;53.214;6.556;2023-12-22T04:17:01;6.00;;;2.80;;
51907;SDS011;39320;53.214;6.556;2023-12-22T04:19:27;4.43;;;2.75;;
51907;SDS011;39320;53.214;6.556;2023-12-22T04:21:52;4.07;;;2.50;;
51907;SDS011;39320;53.214;6.556;2023-12-22T04:24:18;6.15;;;3.03;;
51907;SDS011;39320;53.214;6.556;2023-12-22T04:26:44;4.28;;;3.10;;
51907;SDS011;39320;53.214;6.556;2023-12-22T04:29:09;4.22;;;2.63;;
51907;SDS011;39320;53.214;6.556;2023-12-22T04:31:35;3.60;;;2.40;;
51907;SDS011;39320;53.214;6.556;2023-12-22T04:34:01;5.63;;;2.53;;
51907;SDS011;39320;53.214;6.556;2023-12-22T04:36:26;2.92;;;2.25;;
51907;SDS011;39320;53.214;6.556;2023-12-22T04:38:52;3.67;;;2.25;;
51907;SDS011;39320;53.214;6.556;2023-12-22T04:41:17;2.83;;;2.53;;
51907;SDS011;39320;53.214;6.556;2023-12-22T04:43:43;2.90;;;2.30;;
51907;SDS011;39320;53.214;6.556;2023-12-22T04:46:09;3.08;;;2.05;;
51907;SDS011;39320;53.214;6.556;2023-12-22T04:48:35;2.97;;;2.05;;
51907;SDS011;39320;53.214;6.556;2023-12-22T04:51:00;5.68;;;3.38;;
51907;SDS011;39320;53.214;6.556;2023-12-22T04:53:27;3.97;;;2.40;;
51907;SDS011;39320;53.214;6.556;2023-12-22T04:55:52;3.47;;;2.58;;
51907;SDS011;39320;53.214;6.556;2023-12-22T04:58:18;4.38;;;2.53;;
51907;SDS011;39320;53.214;6.556;2023-12-22T05:00:44;3.42;;;2.53;;
51907;SDS011;39320;53.214;6.556;2023-12-22T05:03:09;6.15;;;2.65;;
51907;SDS011;39320;53.214;6.556;2023-12-22T05:05:35;3.80;;;1.80;;
51907;SDS011;39320;53.214;6.556;2023-12-22T05:08:01;2.75;;;2.15;;
51907;SDS011;39320;53.214;6.556;2023-12-22T05:10:27;4.07;;;2.53;;
51907;SDS011;39320;53.214;6.556;2023-12-22T05:12:53;4.55;;;2.40;;
51907;SDS011;39320;53.214;6.556;2023-12-22T05:15:19;3.38;;;2.30;;
51907;SDS011;39320;53.214;6.556;2023-12-22T05:17:45;2.85;;;1.90;;
51907;SDS011;39320;53.214;6.556;2023-12-22T05:20:10;2.67;;;2.30;;
51907;SDS011;39320;53.214;6.556;2023-12-22T05:22:36;2.58;;;1.88;;
51907;SDS011;39320;53.214;6.556;2023-12-22T05:25:02;4.10;;;2.65;;
51907;SDS011;39320;53.214;6.556;2023-12-22T05:27:28;3.17;;;2.80;;
51907;SDS011;39320;53.214;6.556;2023-12-22T05:29:54;5.82;;;2.55;;
51907;SDS011;39320;53.214;6.556;2023-12-22T05:32:19;5.05;;;2.30;;
51907;SDS011;39320;53.214;6.556;2023-12-22T05:34:45;4.68;;;2.92;;
51907;SDS011;39320;53.214;6.556;2023-12-22T05:37:11;3.03;;;2.40;;
51907;SDS011;39320;53.214;6.556;2023-12-22T05:39:37;3.83;;;2.50;;
51907;SDS011;39320;53.214;6.556;2023-12-22T05:42:02;4.00;;;2.47;;
51907;SDS011;39320;53.214;6.556;2023-12-22T05:44:28;3.78;;;2.60;;
51907;SDS011;39320;53.214;6.556;2023-12-22T05:46:56;4.68;;;2.17;;
51907;SDS011;39320;53.214;6.556;2023-12-22T05:49:22;5.75;;;2.63;;
51907;SDS011;39320;53.214;6.556;2023-12-22T05:51:48;3.72;;;2.22;;
51907;SDS011;39320;53.214;6.556;2023-12-22T05:54:15;3.35;;;2.40;;
51907;SDS011;39320;53.214;6.556;2023-12-22T05:56:42;2.70;;;2.10;;
51907;SDS011;39320;53.214;6.556;2023-12-22T05:59:11;2.75;;;2.05;;
51907;SDS011;39320;53.214;6.556;2023-12-22T06:01:36;4.72;;;2.70;;
51907;SDS011;39320;53.214;6.556;2023-12-22T06:04:02;6.15;;;2.47;;
51907;SDS011;39320;53.214;6.556;2023-12-22T06:06:28;2.67;;;2.10;;
51907;SDS011;39320;53.214;6.556;2023-12-22T06:08:55;2.63;;;2.40;;
51907;SDS011;39320;53.214;6.556;2023-12-22T06:11:21;4.25;;;2.33;;
51907;SDS011;39320;53.214;6.556;2023-12-22T06:13:47;4.10;;;2.50;;
51907;SDS011;39320;53.214;6.556;2023-12-22T06:16:13;3.47;;;2.00;;
51907;SDS011;39320;53.214;6.556;2023-12-22T06:18:40;3.25;;;2.38;;
51907;SDS011;39320;53.214;6.556;2023-12-22T06:21:06;4.85;;;2.47;;
51907;SDS011;39320;53.214;6.556;2023-12-22T06:23:33;3.05;;;2.50;;
51907;SDS011;39320;53.214;6.556;2023-12-22T06:25:59;3.58;;;2.47;;
51907;SDS011;39320;53.214;6.556;2023-12-22T06:28:27;5.57;;;2.70;;
51907;SDS011;39320;53.214;6.556;2023-12-22T06:30:53;3.63;;;2.40;;
51907;SDS011;39320;53.214;6.556;2023-12-22T06:33:19;2.67;;;2.25;;
51907;SDS011;39320;53.214;6.556;2023-12-22T06:35:45;4.75;;;2.20;;
51907;SDS011;39320;53.214;6.556;2023-12-22T06:38:11;4.55;;;2.60;;
51907;SDS011;39320;53.214;6.556;2023-12-22T06:40:36;6.20;;;2.85;;
51907;SDS011;39320;53.214;6.556;2023-12-22T06:43:03;3.40;;;2.60;;
51907;SDS011;39320;53.214;6.556;2023-12-22T06:45:29;5.68;;;3.28;;
51907;SDS011;39320;53.214;6.556;2023-12-22T06:47:55;2.72;;;2.30;;
51907;SDS011;39320;53.214;6.556;2023-12-22T06:50:21;2.92;;;1.67;;
51907;SDS011;39320;53.214;6.556;2023-12-22T06:52:46;2.88;;;1.50;;
51907;SDS011;39320;53.214;6.556;2023-12-22T06:55:12;2.13;;;1.85;;
51907;SDS011;39320;53.214;6.556;2023-12-22T06:57:38;1.65;;;1.55;;
51907;SDS011;39320;53.214;6.556;2023-12-22T07:00:04;2.20;;;1.67;;
51907;SDS011;39320;53.214;6.556;2023-12-22T07:02:32;2.60;;;1.80;;
51907;SDS011;39320;53.214;6.556;2023-12-22T07:07:46;3.15;;;1.88;;
51907;SDS011;39320;53.214;6.556;2023-12-22T07:10:12;2.65;;;1.90;;
51907;SDS011;39320;53.214;6.556;2023-12-22T07:12:37;2.53;;;1.60;;
51907;SDS011;39320;53.214;6.556;2023-12-22T07:15:04;1.70;;;1.60;;
51907;SDS011;39320;53.214;6.556;2023-12-22T07:17:32;3.53;;;2.08;;
51907;SDS011;39320;53.214;6.556;2023-12-22T07:19:58;2.50;;;1.75;;
51907;SDS011;39320;53.214;6.556;2023-12-22T07:22:23;2.45;;;1.67;;
51907;SDS011;39320;53.214;6.556;2023-12-22T07:24:49;3.47;;;1.85;;
51907;SDS011;39320;53.214;6.556;2023-12-22T07:27:17;2.90;;;2.20;;
51907;SDS011;39320;53.214;6.556;2023-12-22T07:29:43;2.30;;;2.10;;
51907;SDS011;39320;53.214;6.556;2023-12-22T07:32:09;3.42;;;2.15;;
51907;SDS011;39320;53.214;6.556;2023-12-22T07:34:35;3.50;;;2.17;;
51907;SDS011;39320;53.214;6.556;2023-12-22T07:37:00;2.88;;;2.30;;
51907;SDS011;39320;53.214;6.556;2023-12-22T07:39:26;2.88;;;2.25;;
51907;SDS011;39320;53.214;6.556;2023-12-22T07:41:52;4.85;;;2.20;;
51907;SDS011;39320;53.214;6.556;2023-12-22T07:44:18;3.53;;;2.30;;
51907;SDS011;39320;53.214;6.556;2023-12-22T07:46:43;2.72;;;2.20;;
51907;SDS011;39320;53.214;6.556;2023-12-22T07:49:09;4.20;;;2.28;;
51907;SDS011;39320;53.214;6.556;2023-12-22T07:51:35;4.88;;;2.78;;
51907;SDS011;39320;53.214;6.556;2023-12-22T07:54:01;3.47;;;2.50;;
51907;SDS011;39320;53.214;6.556;2023-12-22T07:56:26;3.38;;;2.30;;
51907;SDS011;39320;53.214;6.556;2023-12-22T07:58:52;3.97;;;2.20;;
51907;SDS011;39320;53.214;6.556;2023-12-22T08:01:18;4.68;;;2.50;;
51907;SDS011;39320;53.214;6.556;2023-12-22T08:03:44;6.22;;;2.53;;
51907;SDS011;39320;53.214;6.556;2023-12-22T08:06:10;2.53;;;1.80;;
51907;SDS011;39320;53.214;6.556;2023-12-22T08:08:35;2.63;;;1.55;;
51907;SDS011;39320;53.214;6.556;2023-12-22T08:11:01;6.15;;;2.33;;
51907;SDS011;39320;53.214;6.556;2023-12-22T08:13:27;2.42;;;1.80;;
51907;SDS011;39320;53.214;6.556;2023-12-22T08:15:53;3.55;;;2.10;;
51907;SDS011;39320;53.214;6.556;2023-12-22T08:18:19;2.90;;;1.70;;
51907;SDS011;39320;53.214;6.556;2023-12-22T08:20:44;2.55;;;1.70;;
51907;SDS011;39320;53.214;6.556;2023-12-22T08:23:11;2.78;;;2.10;;
51907;SDS011;39320;53.214;6.556;2023-12-22T08:25:37;3.28;;;2.03;;
51907;SDS011;39320;53.214;6.556;2023-12-22T08:28:04;3.38;;;2.30;;
51907;SDS011;39320;53.214;6.556;2023-12-22T08:30:30;2.30;;;1.90;;
51907;SDS011;39320;53.214;6.556;2023-12-22T08:32:56;3.95;;;1.92;;
51907;SDS011;39320;53.214;6.556;2023-12-22T08:35:22;3.83;;;2.35;;
51907;SDS011;39320;53.214;6.556;2023-12-22T08:37:47;3.63;;;2.20;;
51907;SDS011;39320;53.214;6.556;2023-12-22T08:40:13;2.60;;;1.88;;
51907;SDS011;39320;53.214;6.556;2023-12-22T08:42:39;4.32;;;2.28;;
51907;SDS011;39320;53.214;6.556;2023-12-22T08:45:05;2.30;;;1.88;;
51907;SDS011;39320;53.214;6.556;2023-12-22T08:47:31;3.25;;;1.77;;
51907;SDS011;39320;53.214;6.556;2023-12-22T08:49:57;2.42;;;2.22;;
51907;SDS011;39320;53.214;6.556;2023-12-22T08:52:22;3.50;;;2.17;;
51907;SDS011;39320;53.214;6.556;2023-12-22T08:54:48;3.95;;;2.10;;
51907;SDS011;39320;53.214;6.556;2023-12-22T08:57:14;3.28;;;1.92;;
51907;SDS011;39320;53.214;6.556;2023-12-22T08:59:39;3.15;;;2.00;;
51907;SDS011;39320;53.214;6.556;2023-12-22T09:02:05;2.67;;;2.22;;
51907;SDS011;39320;53.214;6.556;2023-12-22T09:04:31;2.72;;;2.08;;
51907;SDS011;39320;53.214;6.556;2023-12-22T09:06:57;3.13;;;1.90;;
51907;SDS011;39320;53.214;6.556;2023-12-22T09:09:22;2.83;;;2.10;;
51907;SDS011;39320;53.214;6.556;2023-12-22T09:11:49;3.60;;;2.00;;
51907;SDS011;39320;53.214;6.556;2023-12-22T09:14:15;2.20;;;1.98;;
51907;SDS011;39320;53.214;6.556;2023-12-22T09:16:41;3.10;;;2.30;;
51907;SDS011;39320;53.214;6.556;2023-12-22T09:19:09;4.10;;;1.70;;
51907;SDS011;39320;53.214;6.556;2023-12-22T09:21:35;2.67;;;1.95;;
51907;SDS011;39320;53.214;6.556;2023-12-22T09:24:00;3.67;;;2.08;;
51907;SDS011;39320;53.214;6.556;2023-12-22T09:26:26;2.38;;;1.85;;
51907;SDS011;39320;53.214;6.556;2023-12-22T09:28:53;5.32;;;2.20;;
51907;SDS011;39320;53.214;6.556;2023-12-22T09:31:20;4.65;;;2.17;;
51907;SDS011;39320;53.214;6.556;2023-12-22T09:33:47;4.28;;;1.95;;
51907;SDS011;39320;53.214;6.556;2023-12-22T09:36:14;1.90;;;1.80;;
51907;SDS011;39320;53.214;6.556;2023-12-22T09:38:39;4.90;;;2.30;;
51907;SDS011;39320;53.214;6.556;2023-12-22T09:41:06;2.08;;;1.40;;
51907;SDS011;39320;53.214;6.556;2023-12-22T09:43:33;2.40;;;1.90;;
51907;SDS011;39320;53.214;6.556;2023-12-22T09:46:01;2.22;;;1.77;;
51907;SDS011;39320;53.214;6.556;2023-12-22T09:48:28;2.50;;;1.65;;
51907;SDS011;39320;53.214;6.556;2023-12-22T09:50:56;2.75;;;1.75;;
51907;SDS011;39320;53.214;6.556;2023-12-22T09:53:23;1.63;;;1.50;;
51907;SDS011;39320;53.214;6.556;2023-12-22T09:55:51;1.80;;;1.70;;
51907;SDS011;39320;53.214;6.556;2023-12-22T09:58:18;2.33;;;1.95;;
51907;SDS011;39320;53.214;6.556;2023-12-22T10:00:44;3.22;;;1.40;;
51907;SDS011;39320;53.214;6.556;2023-12-22T10:03:12;2.63;;;1.65;;
51907;SDS011;39320;53.214;6.556;2023-12-22T10:05:40;2.53;;;2.05;;
51907;SDS011;39320;53.214;6.556;2023-12-22T10:08:06;2.75;;;1.60;;
51907;SDS011;39320;53.214;6.556;2023-12-22T10:10:35;2.58;;;1.98;;
51907;SDS011;39320;53.214;6.556;2023-12-22T10:13:03;2.80;;;1.90;;
51907;SDS011;39320;53.214;6.556;2023-12-22T10:15:32;3.17;;;1.67;;
51907;SDS011;39320;53.214;6.556;2023-12-22T10:17:58;1.35;;;1.25;;
51907;SDS011;39320;53.214;6.556;2023-12-22T10:20:24;3.22;;;1.75;;
51907;SDS011;39320;53.214;6.556;2023-12-22T10:22:49;3.45;;;1.45;;
51907;SDS011;39320;53.214;6.556;2023-12-22T10:25:15;1.60;;;1.30;;
51907;SDS011;39320;53.214;6.556;2023-12-22T10:27:44;2.40;;;1.65;;
51907;SDS011;39320;53.214;6.556;2023-12-22T10:30:11;2.17;;;1.75;;
51907;SDS011;39320;53.214;6.556;2023-12-22T10:32:41;2.28;;;1.92;;
51907;SDS011;39320;53.214;6.556;2023-12-22T10:35:10;2.95;;;1.58;;
51907;SDS011;39320;53.214;6.556;2023-12-22T10:37:36;1.90;;;1.30;;
51907;SDS011;39320;53.214;6.556;2023-12-22T10:40:06;1.98;;;1.75;;
51907;SDS011;39320;53.214;6.556;2023-12-22T10:42:34;1.98;;;1.67;;
51907;SDS011;39320;53.214;6.556;2023-12-22T10:45:00;3.03;;;1.63;;
51907;SDS011;39320;53.214;6.556;2023-12-22T10:47:27;2.58;;;1.50;;
51907;SDS011;39320;53.214;6.556;2023-12-22T10:49:54;2.55;;;2.10;;
51907;SDS011;39320;53.214;6.556;2023-12-22T10:52:19;3.25;;;2.58;;
51907;SDS011;39320;53.214;6.556;2023-12-22T10:54:48;3.65;;;2.10;;
51907;SDS011;39320;53.214;6.556;2023-12-22T10:57:17;2.58;;;1.77;;
51907;SDS011;39320;53.214;6.556;2023-12-22T10:59:44;4.20;;;2.10;;
51907;SDS011;39320;53.214;6.556;2023-12-22T11:02:15;2.92;;;2.22;;
51907;SDS011;39320;53.214;6.556;2023-12-22T11:04:55;3.67;;;2.35;;
51907;SDS011;39320;53.214;6.556;2023-12-22T11:07:23;2.85;;;2.10;;
51907;SDS011;39320;53.214;6.556;2023-12-22T11:09:50;2.58;;;1.80;;
51907;SDS011;39320;53.214;6.556;2023-12-22T11:12:19;2.30;;;1.85;;
51907;SDS011;39320;53.214;6.556;2023-12-22T11:14:45;4.60;;;2.35;;
51907;SDS011;39320;53.214;6.556;2023-12-22T11:17:18;2.10;;;1.90;;
51907;SDS011;39320;53.214;6.556;2023-12-22T11:19:47;2.42;;;2.22;;
51907;SDS011;39320;53.214;6.556;2023-12-22T11:22:18;2.53;;;1.75;;
51907;SDS011;39320;53.214;6.556;2023-12-22T11:24:46;1.70;;;1.60;;
51907;SDS011;39320;53.214;6.556;2023-12-22T11:27:13;2.85;;;2.28;;
51907;SDS011;39320;53.214;6.556;2023-12-22T11:29:47;2.30;;;2.10;;
51907;SDS011;39320;53.214;6.556;2023-12-22T11:32:15;4.45;;;2.10;;
51907;SDS011;39320;53.214;6.556;2023-12-22T11:34:42;4.22;;;1.80;;
51907;SDS011;39320;53.214;6.556;2023-12-22T11:37:12;2.42;;;1.80;;
51907;SDS011;39320;53.214;6.556;2023-12-22T11:39:39;3.15;;;2.08;;
51907;SDS011;39320;53.214;6.556;2023-12-22T11:42:10;1.88;;;1.55;;
51907;SDS011;39320;53.214;6.556;2023-12-22T11:44:39;2.10;;;1.90;;
51907;SDS011;39320;53.214;6.556;2023-12-22T11:47:08;2.83;;;1.65;;
51907;SDS011;39320;53.214;6.556;2023-12-22T11:49:36;3.28;;;1.98;;
51907;SDS011;39320;53.214;6.556;2023-12-22T11:52:36;3.22;;;2.13;;
51907;SDS011;39320;53.214;6.556;2023-12-22T11:54:55;2.33;;;1.80;;
51907;SDS011;39320;53.214;6.556;2023-12-22T11:59:54;2.08;;;1.58;;
51907;SDS011;39320;53.214;6.556;2023-12-22T12:02:20;2.67;;;1.90;;
51907;SDS011;39320;53.214;6.556;2023-12-22T12:04:47;2.50;;;1.83;;
51907;SDS011;39320;53.214;6.556;2023-12-22T12:10:01;2.20;;;1.60;;
51907;SDS011;39320;53.214;6.556;2023-12-22T12:12:27;3.60;;;2.00;;
51907;SDS011;39320;53.214;6.556;2023-12-22T12:14:53;2.78;;;2.00;;
51907;SDS011;39320;53.214;6.556;2023-12-22T12:17:23;3.67;;;2.03;;
51907;SDS011;39320;53.214;6.556;2023-12-22T12:19:49;2.88;;;1.52;;
51907;SDS011;39320;53.214;6.556;2023-12-22T12:22:16;3.25;;;1.58;;
51907;SDS011;39320;53.214;6.556;2023-12-22T12:24:42;2.75;;;1.80;;
51907;SDS011;39320;53.214;6.556;2023-12-22T12:27:10;2.42;;;1.70;;
51907;SDS011;39320;53.214;6.556;2023-12-22T12:29:36;5.03;;;2.03;;
51907;SDS011;39320;53.214;6.556;2023-12-22T12:32:03;2.25;;;1.75;;
51907;SDS011;39320;53.214;6.556;2023-12-22T12:34:30;2.33;;;1.50;;
51907;SDS011;39320;53.214;6.556;2023-12-22T12:36:56;3.15;;;2.00;;
51907;SDS011;39320;53.214;6.556;2023-12-22T12:39:23;2.55;;;1.80;;
51907;SDS011;39320;53.214;6.556;2023-12-22T12:41:53;2.75;;;1.80;;
51907;SDS011;39320;53.214;6.556;2023-12-22T12:44:19;3.63;;;1.77;;
51907;SDS011;39320;53.214;6.556;2023-12-22T12:46:46;3.63;;;1.67;;
51907;SDS011;39320;53.214;6.556;2023-12-22T12:49:13;2.28;;;1.48;;
51907;SDS011;39320;53.214;6.556;2023-12-22T12:51:41;3.33;;;2.35;;
51907;SDS011;39320;53.214;6.556;2023-12-22T12:54:09;2.05;;;1.65;;
51907;SDS011;39320;53.214;6.556;2023-12-22T12:56:36;2.20;;;1.65;;
51907;SDS011;39320;53.214;6.556;2023-12-22T12:59:15;3.38;;;2.67;;
51907;SDS011;39320;53.214;6.556;2023-12-22T13:01:46;3.95;;;2.00;;
51907;SDS011;39320;53.214;6.556;2023-12-22T13:04:13;3.08;;;2.08;;
51907;SDS011;39320;53.214;6.556;2023-12-22T13:06:45;2.95;;;1.80;;
51907;SDS011;39320;53.214;6.556;2023-12-22T13:09:12;2.55;;;2.30;;
51907;SDS011;39320;53.214;6.556;2023-12-22T13:11:38;1.95;;;1.50;;
51907;SDS011;39320;53.214;6.556;2023-12-22T13:14:05;2.65;;;1.63;;
51907;SDS011;39320;53.214;6.556;2023-12-22T13:16:33;2.80;;;1.75;;
51907;SDS011;39320;53.214;6.556;2023-12-22T13:19:00;3.20;;;1.55;;
51907;SDS011;39320;53.214;6.556;2023-12-22T13:21:29;2.42;;;1.52;;
51907;SDS011;39320;53.214;6.556;2023-12-22T13:26:37;1.50;;;1.40;;
51907;SDS011;39320;53.214;6.556;2023-12-22T13:29:04;2.25;;;1.60;;
51907;SDS011;39320;53.214;6.556;2023-12-22T13:31:31;2.03;;;1.60;;
51907;SDS011;39320;53.214;6.556;2023-12-22T13:33:58;2.15;;;1.63;;
51907;SDS011;39320;53.214;6.556;2023-12-22T13:36:27;1.50;;;1.33;;
51907;SDS011;39320;53.214;6.556;2023-12-22T13:38:58;2.22;;;1.50;;
51907;SDS011;39320;53.214;6.556;2023-12-22T13:41:24;1.45;;;1.27;;
51907;SDS011;39320;53.214;6.556;2023-12-22T13:43:50;1.60;;;1.20;;
51907;SDS011;39320;53.214;6.556;2023-12-22T13:46:15;1.77;;;1.67;;
51907;SDS011;39320;53.214;6.556;2023-12-22T13:48:41;1.30;;;1.20;;
51907;SDS011;39320;53.214;6.556;2023-12-22T13:51:08;1.65;;;1.35;;
51907;SDS011;39320;53.214;6.556;2023-12-22T13:53:35;1.45;;;1.30;;
51907;SDS011;39320;53.214;6.556;2023-12-22T13:56:11;2.17;;;1.20;;
51907;SDS011;39320;53.214;6.556;2023-12-22T13:58:46;1.00;;;1.00;;
51907;SDS011;39320;53.214;6.556;2023-12-22T14:01:14;3.28;;;1.27;;
51907;SDS011;39320;53.214;6.556;2023-12-22T14:03:41;1.30;;;1.00;;
51907;SDS011;39320;53.214;6.556;2023-12-22T14:06:07;1.67;;;1.20;;
51907;SDS011;39320;53.214;6.556;2023-12-22T14:08:34;0.80;;;0.80;;
51907;SDS011;39320;53.214;6.556;2023-12-22T14:11:01;1.25;;;1.13;;
51907;SDS011;39320;53.214;6.556;2023-12-22T14:13:27;1.13;;;1.02;;
51907;SDS011;39320;53.214;6.556;2023-12-22T14:15:52;1.95;;;1.33;;
51907;SDS011;39320;53.214;6.556;2023-12-22T14:18:18;1.42;;;0.95;;
51907;SDS011;39320;53.214;6.556;2023-12-22T14:20:44;1.10;;;1.00;;
51907;SDS011;39320;53.214;6.556;2023-12-22T14:23:11;1.73;;;1.02;;
51907;SDS011;39320;53.214;6.556;2023-12-22T14:25:41;2.00;;;1.10;;
51907;SDS011;39320;53.214;6.556;2023-12-22T14:28:07;1.15;;;1.05;;
51907;SDS011;39320;53.214;6.556;2023-12-22T14:30:33;1.73;;;1.40;;
51907;SDS011;39320;53.214;6.556;2023-12-22T14:32:59;1.35;;;1.10;;
51907;SDS011;39320;53.214;6.556;2023-12-22T14:35:25;1.98;;;1.30;;
51907;SDS011;39320;53.214;6.556;2023-12-22T14:37:50;1.38;;;1.20;;
51907;SDS011;39320;53.214;6.556;2023-12-22T14:40:16;1.58;;;1.40;;
51907;SDS011;39320;53.214;6.556;2023-12-22T14:42:42;2.15;;;1.20;;
51907;SDS011;39320;53.214;6.556;2023-12-22T14:45:08;2.70;;;1.13;;
51907;SDS011;39320;53.214;6.556;2023-12-22T14:47:34;1.80;;;1.30;;
51907;SDS011;39320;53.214;6.556;2023-12-22T14:50:00;2.22;;;1.27;;
51907;SDS011;39320;53.214;6.556;2023-12-22T14:52:32;2.10;;;1.27;;
51907;SDS011;39320;53.214;6.556;2023-12-22T14:54:58;2.83;;;1.77;;